sensor_id;sensor_type;location;lat;lon;timestamp;P1;durP1;ratioP1;P2;durP2;ratioP2
54835;SDS011;43486;43.574;1.476;2023-07-24T00:01:39;11.00;;;4.85;;
54835;SDS011;43486;43.574;1.476;2023-07-24T00:04:04;6.03;;;3.72;;
54835;SDS011;43486;43.574;1.476;2023-07-24T00:06:30;8.35;;;4.53;;
54835;SDS011;43486;43.574;1.476;2023-07-24T00:08:55;9.45;;;5.40;;
54835;SDS011;43486;43.574;1.476;2023-07-24T00:11:20;11.20;;;5.85;;
54835;SDS011;43486;43.574;1.476;2023-07-24T00:13:46;11.73;;;4.47;;
54835;SDS011;43486;43.574;1.476;2023-07-24T00:16:11;11.98;;;3.42;;
54835;SDS011;43486;43.574;1.476;2023-07-24T00:18:36;9.70;;;5.28;;
54835;SDS011;43486;43.574;1.476;2023-07-24T00:21:02;9.32;;;4.80;;
54835;SDS011;43486;43.574;1.476;2023-07-24T00:23:27;16.05;;;5.07;;
54835;SDS011;43486;43.574;1.476;2023-07-24T00:25:53;10.07;;;4.93;;
54835;SDS011;43486;43.574;1.476;2023-07-24T00:28:19;9.13;;;3.40;;
54835;SDS011;43486;43.574;1.476;2023-07-24T00:30:44;11.32;;;5.00;;
54835;SDS011;43486;43.574;1.476;2023-07-24T00:33:09;8.07;;;4.05;;
54835;SDS011;43486;43.574;1.476;2023-07-24T00:35:35;8.48;;;4.45;;
54835;SDS011;43486;43.574;1.476;2023-07-24T00:38:00;7.93;;;4.45;;
54835;SDS011;43486;43.574;1.476;2023-07-24T00:40:25;13.65;;;3.67;;
54835;SDS011;43486;43.574;1.476;2023-07-24T00:42:51;7.28;;;4.15;;
54835;SDS011;43486;43.574;1.476;2023-07-24T00:45:16;9.20;;;4.15;;
54835;SDS011;43486;43.574;1.476;2023-07-24T00:47:44;8.07;;;4.85;;
54835;SDS011;43486;43.574;1.476;2023-07-24T00:50:10;9.43;;;4.25;;
54835;SDS011;43486;43.574;1.476;2023-07-24T00:52:36;11.52;;;4.85;;
54835;SDS011;43486;43.574;1.476;2023-07-24T00:55:02;8.80;;;4.43;;
54835;SDS011;43486;43.574;1.476;2023-07-24T00:57:28;10.20;;;4.13;;
54835;SDS011;43486;43.574;1.476;2023-07-24T00:59:53;8.15;;;3.90;;
54835;SDS011;43486;43.574;1.476;2023-07-24T01:02:19;8.77;;;5.28;;
54835;SDS011;43486;43.574;1.476;2023-07-24T01:04:45;7.78;;;3.45;;
54835;SDS011;43486;43.574;1.476;2023-07-24T01:07:10;9.05;;;3.92;;
54835;SDS011;43486;43.574;1.476;2023-07-24T01:09:36;8.27;;;4.95;;
54835;SDS011;43486;43.574;1.476;2023-07-24T01:12:06;9.60;;;3.75;;
54835;SDS011;43486;43.574;1.476;2023-07-24T01:14:47;12.00;;;5.10;;
54835;SDS011;43486;43.574;1.476;2023-07-24T01:17:25;8.20;;;3.38;;
54835;SDS011;43486;43.574;1.476;2023-07-24T01:19:54;9.70;;;4.68;;
54835;SDS011;43486;43.574;1.476;2023-07-24T01:24:59;7.60;;;3.88;;
54835;SDS011;43486;43.574;1.476;2023-07-24T01:27:44;6.82;;;4.15;;
54835;SDS011;43486;43.574;1.476;2023-07-24T01:30:16;11.32;;;4.75;;
54835;SDS011;43486;43.574;1.476;2023-07-24T01:32:43;8.80;;;4.43;;
54835;SDS011;43486;43.574;1.476;2023-07-24T01:35:08;8.82;;;5.13;;
54835;SDS011;43486;43.574;1.476;2023-07-24T01:37:34;9.30;;;4.70;;
54835;SDS011;43486;43.574;1.476;2023-07-24T01:40:00;10.43;;;4.65;;
54835;SDS011;43486;43.574;1.476;2023-07-24T01:42:27;6.22;;;3.42;;
54835;SDS011;43486;43.574;1.476;2023-07-24T01:44:53;8.23;;;4.15;;
54835;SDS011;43486;43.574;1.476;2023-07-24T01:47:19;5.80;;;3.13;;
54835;SDS011;43486;43.574;1.476;2023-07-24T01:49:44;10.57;;;3.30;;
54835;SDS011;43486;43.574;1.476;2023-07-24T01:52:10;10.38;;;4.10;;
54835;SDS011;43486;43.574;1.476;2023-07-24T01:54:35;11.63;;;4.55;;
54835;SDS011;43486;43.574;1.476;2023-07-24T01:57:00;5.82;;;3.38;;
54835;SDS011;43486;43.574;1.476;2023-07-24T01:59:26;10.15;;;3.85;;
54835;SDS011;43486;43.574;1.476;2023-07-24T02:01:51;7.50;;;3.53;;
54835;SDS011;43486;43.574;1.476;2023-07-24T02:04:17;7.03;;;4.03;;
54835;SDS011;43486;43.574;1.476;2023-07-24T02:06:42;10.70;;;4.25;;
54835;SDS011;43486;43.574;1.476;2023-07-24T02:09:07;7.10;;;3.55;;
54835;SDS011;43486;43.574;1.476;2023-07-24T02:11:33;11.20;;;3.30;;
54835;SDS011;43486;43.574;1.476;2023-07-24T02:13:59;7.00;;;3.90;;
54835;SDS011;43486;43.574;1.476;2023-07-24T02:16:24;8.85;;;4.38;;
54835;SDS011;43486;43.574;1.476;2023-07-24T02:18:50;8.48;;;4.60;;
54835;SDS011;43486;43.574;1.476;2023-07-24T02:21:15;12.88;;;4.38;;
54835;SDS011;43486;43.574;1.476;2023-07-24T02:23:41;10.20;;;4.93;;
54835;SDS011;43486;43.574;1.476;2023-07-24T02:26:06;7.97;;;4.28;;
54835;SDS011;43486;43.574;1.476;2023-07-24T02:28:31;8.15;;;3.70;;
54835;SDS011;43486;43.574;1.476;2023-07-24T02:30:57;7.28;;;4.47;;
54835;SDS011;43486;43.574;1.476;2023-07-24T02:33:22;7.72;;;3.95;;
54835;SDS011;43486;43.574;1.476;2023-07-24T02:35:48;6.38;;;3.47;;
54835;SDS011;43486;43.574;1.476;2023-07-24T02:38:16;6.40;;;3.60;;
54835;SDS011;43486;43.574;1.476;2023-07-24T02:40:41;8.00;;;3.92;;
54835;SDS011;43486;43.574;1.476;2023-07-24T02:43:06;9.15;;;3.95;;
54835;SDS011;43486;43.574;1.476;2023-07-24T02:45:36;7.97;;;3.90;;
54835;SDS011;43486;43.574;1.476;2023-07-24T02:48:02;7.78;;;4.13;;
54835;SDS011;43486;43.574;1.476;2023-07-24T02:50:28;7.18;;;4.00;;
54835;SDS011;43486;43.574;1.476;2023-07-24T02:52:53;6.18;;;3.65;;
54835;SDS011;43486;43.574;1.476;2023-07-24T02:55:18;7.13;;;4.28;;
54835;SDS011;43486;43.574;1.476;2023-07-24T02:57:44;7.35;;;3.95;;
54835;SDS011;43486;43.574;1.476;2023-07-24T03:00:09;9.48;;;4.10;;
54835;SDS011;43486;43.574;1.476;2023-07-24T03:02:35;7.07;;;4.15;;
54835;SDS011;43486;43.574;1.476;2023-07-24T03:05:01;8.52;;;4.63;;
54835;SDS011;43486;43.574;1.476;2023-07-24T03:07:27;7.45;;;4.30;;
54835;SDS011;43486;43.574;1.476;2023-07-24T03:09:52;6.30;;;3.70;;
54835;SDS011;43486;43.574;1.476;2023-07-24T03:12:17;9.20;;;4.05;;
54835;SDS011;43486;43.574;1.476;2023-07-24T03:14:43;8.40;;;3.90;;
54835;SDS011;43486;43.574;1.476;2023-07-24T03:17:08;8.57;;;4.20;;
54835;SDS011;43486;43.574;1.476;2023-07-24T03:19:33;12.65;;;4.65;;
54835;SDS011;43486;43.574;1.476;2023-07-24T03:21:59;8.65;;;3.50;;
54835;SDS011;43486;43.574;1.476;2023-07-24T03:24:24;6.93;;;4.30;;
54835;SDS011;43486;43.574;1.476;2023-07-24T03:26:50;10.82;;;4.22;;
54835;SDS011;43486;43.574;1.476;2023-07-24T03:29:15;7.97;;;4.38;;
54835;SDS011;43486;43.574;1.476;2023-07-24T03:31:40;7.70;;;4.32;;
54835;SDS011;43486;43.574;1.476;2023-07-24T03:34:06;9.20;;;5.75;;
54835;SDS011;43486;43.574;1.476;2023-07-24T03:36:31;10.80;;;4.60;;
54835;SDS011;43486;43.574;1.476;2023-07-24T03:38:57;7.07;;;4.10;;
54835;SDS011;43486;43.574;1.476;2023-07-24T03:41:22;7.05;;;3.75;;
54835;SDS011;43486;43.574;1.476;2023-07-24T03:43:47;8.35;;;3.63;;
54835;SDS011;43486;43.574;1.476;2023-07-24T03:46:13;7.97;;;4.32;;
54835;SDS011;43486;43.574;1.476;2023-07-24T03:48:38;8.15;;;4.95;;
54835;SDS011;43486;43.574;1.476;2023-07-24T03:51:03;5.05;;;2.80;;
54835;SDS011;43486;43.574;1.476;2023-07-24T03:53:29;7.85;;;4.65;;
54835;SDS011;43486;43.574;1.476;2023-07-24T03:55:54;6.85;;;3.47;;
54835;SDS011;43486;43.574;1.476;2023-07-24T03:58:20;6.68;;;3.67;;
54835;SDS011;43486;43.574;1.476;2023-07-24T04:00:45;6.28;;;3.63;;
54835;SDS011;43486;43.574;1.476;2023-07-24T04:03:11;6.32;;;3.65;;
54835;SDS011;43486;43.574;1.476;2023-07-24T04:05:36;8.07;;;3.38;;
54835;SDS011;43486;43.574;1.476;2023-07-24T04:08:02;7.15;;;3.88;;
54835;SDS011;43486;43.574;1.476;2023-07-24T04:10:28;8.38;;;3.33;;
54835;SDS011;43486;43.574;1.476;2023-07-24T04:12:54;6.38;;;3.70;;
54835;SDS011;43486;43.574;1.476;2023-07-24T04:15:20;7.30;;;4.20;;
54835;SDS011;43486;43.574;1.476;2023-07-24T04:17:45;7.97;;;3.60;;
54835;SDS011;43486;43.574;1.476;2023-07-24T04:20:11;8.55;;;3.80;;
54835;SDS011;43486;43.574;1.476;2023-07-24T04:22:36;6.38;;;3.45;;
54835;SDS011;43486;43.574;1.476;2023-07-24T04:25:01;10.00;;;3.70;;
54835;SDS011;43486;43.574;1.476;2023-07-24T04:27:27;7.53;;;3.38;;
54835;SDS011;43486;43.574;1.476;2023-07-24T04:29:53;7.53;;;3.45;;
54835;SDS011;43486;43.574;1.476;2023-07-24T04:32:18;6.55;;;3.22;;
54835;SDS011;43486;43.574;1.476;2023-07-24T04:34:44;8.93;;;4.75;;
54835;SDS011;43486;43.574;1.476;2023-07-24T04:37:09;8.95;;;4.30;;
54835;SDS011;43486;43.574;1.476;2023-07-24T04:39:34;8.07;;;4.00;;
54835;SDS011;43486;43.574;1.476;2023-07-24T04:42:00;11.43;;;3.97;;
54835;SDS011;43486;43.574;1.476;2023-07-24T04:44:25;6.13;;;3.90;;
54835;SDS011;43486;43.574;1.476;2023-07-24T04:46:50;6.30;;;3.50;;
54835;SDS011;43486;43.574;1.476;2023-07-24T04:49:16;7.32;;;3.85;;
54835;SDS011;43486;43.574;1.476;2023-07-24T04:51:41;8.02;;;3.72;;
54835;SDS011;43486;43.574;1.476;2023-07-24T04:54:07;6.57;;;3.28;;
54835;SDS011;43486;43.574;1.476;2023-07-24T04:56:32;5.60;;;3.05;;
54835;SDS011;43486;43.574;1.476;2023-07-24T04:58:58;7.68;;;4.13;;
54835;SDS011;43486;43.574;1.476;2023-07-24T05:01:23;6.75;;;3.15;;
54835;SDS011;43486;43.574;1.476;2023-07-24T05:03:48;5.25;;;3.47;;
54835;SDS011;43486;43.574;1.476;2023-07-24T05:06:14;7.70;;;3.65;;
54835;SDS011;43486;43.574;1.476;2023-07-24T05:08:39;7.10;;;3.28;;
54835;SDS011;43486;43.574;1.476;2023-07-24T05:11:04;6.57;;;3.97;;
54835;SDS011;43486;43.574;1.476;2023-07-24T05:13:30;6.93;;;3.50;;
54835;SDS011;43486;43.574;1.476;2023-07-24T05:15:55;7.05;;;3.00;;
54835;SDS011;43486;43.574;1.476;2023-07-24T05:18:21;6.15;;;3.25;;
54835;SDS011;43486;43.574;1.476;2023-07-24T05:20:46;5.88;;;3.28;;
54835;SDS011;43486;43.574;1.476;2023-07-24T05:23:13;5.80;;;2.63;;
54835;SDS011;43486;43.574;1.476;2023-07-24T05:25:38;5.93;;;2.97;;
54835;SDS011;43486;43.574;1.476;2023-07-24T05:28:03;6.88;;;3.45;;
54835;SDS011;43486;43.574;1.476;2023-07-24T05:30:29;5.50;;;3.10;;
54835;SDS011;43486;43.574;1.476;2023-07-24T05:32:54;9.30;;;4.05;;
54835;SDS011;43486;43.574;1.476;2023-07-24T05:35:20;5.78;;;2.35;;
54835;SDS011;43486;43.574;1.476;2023-07-24T05:37:45;5.80;;;2.88;;
54835;SDS011;43486;43.574;1.476;2023-07-24T05:40:10;6.22;;;3.40;;
54835;SDS011;43486;43.574;1.476;2023-07-24T05:42:36;7.38;;;3.95;;
54835;SDS011;43486;43.574;1.476;2023-07-24T05:45:06;5.93;;;3.10;;
54835;SDS011;43486;43.574;1.476;2023-07-24T05:47:33;4.93;;;3.03;;
54835;SDS011;43486;43.574;1.476;2023-07-24T05:49:58;5.93;;;3.33;;
54835;SDS011;43486;43.574;1.476;2023-07-24T05:52:24;5.63;;;3.35;;
54835;SDS011;43486;43.574;1.476;2023-07-24T05:54:49;7.65;;;3.67;;
54835;SDS011;43486;43.574;1.476;2023-07-24T05:57:14;6.63;;;3.00;;
54835;SDS011;43486;43.574;1.476;2023-07-24T05:59:40;7.93;;;4.10;;
54835;SDS011;43486;43.574;1.476;2023-07-24T06:02:05;5.85;;;3.20;;
54835;SDS011;43486;43.574;1.476;2023-07-24T06:04:32;6.30;;;3.00;;
54835;SDS011;43486;43.574;1.476;2023-07-24T06:06:57;7.20;;;3.30;;
54835;SDS011;43486;43.574;1.476;2023-07-24T06:09:23;6.60;;;3.13;;
54835;SDS011;43486;43.574;1.476;2023-07-24T06:11:48;7.05;;;3.17;;
54835;SDS011;43486;43.574;1.476;2023-07-24T06:14:14;6.95;;;3.65;;
54835;SDS011;43486;43.574;1.476;2023-07-24T06:16:39;5.13;;;3.13;;
54835;SDS011;43486;43.574;1.476;2023-07-24T06:19:05;4.57;;;2.45;;
54835;SDS011;43486;43.574;1.476;2023-07-24T06:21:31;6.13;;;3.55;;
54835;SDS011;43486;43.574;1.476;2023-07-24T06:23:56;7.45;;;3.42;;
54835;SDS011;43486;43.574;1.476;2023-07-24T06:26:21;5.47;;;2.63;;
54835;SDS011;43486;43.574;1.476;2023-07-24T06:28:47;11.38;;;4.07;;
54835;SDS011;43486;43.574;1.476;2023-07-24T06:31:12;7.00;;;3.10;;
54835;SDS011;43486;43.574;1.476;2023-07-24T06:33:38;8.90;;;4.60;;
54835;SDS011;43486;43.574;1.476;2023-07-24T06:36:03;7.63;;;3.58;;
54835;SDS011;43486;43.574;1.476;2023-07-24T06:38:29;9.85;;;4.13;;
54835;SDS011;43486;43.574;1.476;2023-07-24T06:40:54;8.38;;;4.15;;
54835;SDS011;43486;43.574;1.476;2023-07-24T06:43:20;10.02;;;3.85;;
54835;SDS011;43486;43.574;1.476;2023-07-24T06:45:45;9.30;;;4.25;;
54835;SDS011;43486;43.574;1.476;2023-07-24T06:48:10;11.20;;;5.20;;
54835;SDS011;43486;43.574;1.476;2023-07-24T06:50:36;12.05;;;4.65;;
54835;SDS011;43486;43.574;1.476;2023-07-24T06:53:01;8.13;;;4.00;;
54835;SDS011;43486;43.574;1.476;2023-07-24T06:55:27;12.20;;;4.18;;
54835;SDS011;43486;43.574;1.476;2023-07-24T06:57:52;9.80;;;4.07;;
54835;SDS011;43486;43.574;1.476;2023-07-24T07:00:17;8.32;;;3.08;;
54835;SDS011;43486;43.574;1.476;2023-07-24T07:02:43;7.75;;;4.63;;
54835;SDS011;43486;43.574;1.476;2023-07-24T07:05:09;5.88;;;3.42;;
54835;SDS011;43486;43.574;1.476;2023-07-24T07:07:34;6.40;;;3.38;;
54835;SDS011;43486;43.574;1.476;2023-07-24T07:10:00;6.47;;;3.05;;
54835;SDS011;43486;43.574;1.476;2023-07-24T07:12:25;11.40;;;4.45;;
54835;SDS011;43486;43.574;1.476;2023-07-24T07:14:51;6.07;;;3.47;;
54835;SDS011;43486;43.574;1.476;2023-07-24T07:17:16;6.50;;;3.10;;
54835;SDS011;43486;43.574;1.476;2023-07-24T07:19:41;9.55;;;4.22;;
54835;SDS011;43486;43.574;1.476;2023-07-24T07:22:07;6.00;;;3.10;;
54835;SDS011;43486;43.574;1.476;2023-07-24T07:24:32;7.97;;;3.85;;
54835;SDS011;43486;43.574;1.476;2023-07-24T07:26:58;8.18;;;3.63;;
54835;SDS011;43486;43.574;1.476;2023-07-24T07:29:23;6.90;;;3.60;;
54835;SDS011;43486;43.574;1.476;2023-07-24T07:31:48;5.85;;;3.03;;
54835;SDS011;43486;43.574;1.476;2023-07-24T07:34:14;6.65;;;2.88;;
54835;SDS011;43486;43.574;1.476;2023-07-24T07:36:39;5.90;;;3.03;;
54835;SDS011;43486;43.574;1.476;2023-07-24T07:39:05;5.63;;;3.50;;
54835;SDS011;43486;43.574;1.476;2023-07-24T07:41:30;7.93;;;3.28;;
54835;SDS011;43486;43.574;1.476;2023-07-24T07:43:56;5.72;;;2.85;;
54835;SDS011;43486;43.574;1.476;2023-07-24T07:46:22;6.93;;;3.42;;
54835;SDS011;43486;43.574;1.476;2023-07-24T07:48:47;7.15;;;3.28;;
54835;SDS011;43486;43.574;1.476;2023-07-24T07:51:14;8.63;;;4.10;;
54835;SDS011;43486;43.574;1.476;2023-07-24T07:53:39;8.82;;;3.83;;
54835;SDS011;43486;43.574;1.476;2023-07-24T07:56:05;7.70;;;3.28;;
54835;SDS011;43486;43.574;1.476;2023-07-24T07:58:30;8.07;;;3.22;;
54835;SDS011;43486;43.574;1.476;2023-07-24T08:00:56;6.70;;;3.47;;
54835;SDS011;43486;43.574;1.476;2023-07-24T08:03:21;6.70;;;3.53;;
54835;SDS011;43486;43.574;1.476;2023-07-24T08:05:46;9.45;;;3.97;;
54835;SDS011;43486;43.574;1.476;2023-07-24T08:08:12;7.78;;;3.65;;
54835;SDS011;43486;43.574;1.476;2023-07-24T08:10:38;7.35;;;3.83;;
54835;SDS011;43486;43.574;1.476;2023-07-24T08:13:03;7.85;;;2.97;;
54835;SDS011;43486;43.574;1.476;2023-07-24T08:15:29;6.85;;;3.53;;
54835;SDS011;43486;43.574;1.476;2023-07-24T08:17:56;6.50;;;2.63;;
54835;SDS011;43486;43.574;1.476;2023-07-24T08:20:21;10.73;;;4.10;;
54835;SDS011;43486;43.574;1.476;2023-07-24T08:22:47;7.47;;;3.55;;
54835;SDS011;43486;43.574;1.476;2023-07-24T08:25:12;8.90;;;3.17;;
54835;SDS011;43486;43.574;1.476;2023-07-24T08:27:37;6.05;;;3.08;;
54835;SDS011;43486;43.574;1.476;2023-07-24T08:30:03;7.15;;;3.30;;
54835;SDS011;43486;43.574;1.476;2023-07-24T08:32:29;6.22;;;3.03;;
54835;SDS011;43486;43.574;1.476;2023-07-24T08:34:54;6.63;;;3.25;;
54835;SDS011;43486;43.574;1.476;2023-07-24T08:37:20;5.85;;;3.20;;
54835;SDS011;43486;43.574;1.476;2023-07-24T08:39:45;5.72;;;2.67;;
54835;SDS011;43486;43.574;1.476;2023-07-24T08:42:11;4.78;;;2.58;;
54835;SDS011;43486;43.574;1.476;2023-07-24T08:44:37;6.53;;;3.40;;
54835;SDS011;43486;43.574;1.476;2023-07-24T08:47:03;6.57;;;3.03;;
54835;SDS011;43486;43.574;1.476;2023-07-24T08:49:29;7.32;;;3.35;;
54835;SDS011;43486;43.574;1.476;2023-07-24T08:51:55;7.78;;;3.72;;
54835;SDS011;43486;43.574;1.476;2023-07-24T08:54:21;8.93;;;3.55;;
54835;SDS011;43486;43.574;1.476;2023-07-24T08:56:47;7.93;;;3.65;;
54835;SDS011;43486;43.574;1.476;2023-07-24T08:59:15;7.10;;;4.03;;
54835;SDS011;43486;43.574;1.476;2023-07-24T09:01:41;7.60;;;2.47;;
54835;SDS011;43486;43.574;1.476;2023-07-24T09:04:06;7.05;;;2.97;;
54835;SDS011;43486;43.574;1.476;2023-07-24T09:06:31;7.25;;;3.70;;
54835;SDS011;43486;43.574;1.476;2023-07-24T09:08:57;6.35;;;3.67;;
54835;SDS011;43486;43.574;1.476;2023-07-24T09:11:22;6.30;;;3.03;;
54835;SDS011;43486;43.574;1.476;2023-07-24T09:13:48;7.45;;;2.55;;
54835;SDS011;43486;43.574;1.476;2023-07-24T09:16:21;5.78;;;3.13;;
54835;SDS011;43486;43.574;1.476;2023-07-24T09:18:50;7.20;;;3.33;;
54835;SDS011;43486;43.574;1.476;2023-07-24T09:21:26;6.28;;;3.15;;
54835;SDS011;43486;43.574;1.476;2023-07-24T09:23:55;7.03;;;3.88;;
54835;SDS011;43486;43.574;1.476;2023-07-24T09:26:21;7.32;;;2.83;;
54835;SDS011;43486;43.574;1.476;2023-07-24T09:28:53;6.53;;;3.15;;
54835;SDS011;43486;43.574;1.476;2023-07-24T09:31:19;6.00;;;3.28;;
54835;SDS011;43486;43.574;1.476;2023-07-24T09:33:44;7.18;;;3.15;;
54835;SDS011;43486;43.574;1.476;2023-07-24T09:36:11;5.18;;;2.55;;
54835;SDS011;43486;43.574;1.476;2023-07-24T09:38:38;6.35;;;2.95;;
54835;SDS011;43486;43.574;1.476;2023-07-24T09:41:04;5.35;;;2.75;;
54835;SDS011;43486;43.574;1.476;2023-07-24T09:43:30;6.60;;;3.10;;
54835;SDS011;43486;43.574;1.476;2023-07-24T09:45:56;6.00;;;3.05;;
54835;SDS011;43486;43.574;1.476;2023-07-24T09:48:23;5.85;;;2.90;;
54835;SDS011;43486;43.574;1.476;2023-07-24T09:50:57;5.38;;;2.67;;
54835;SDS011;43486;43.574;1.476;2023-07-24T09:56:10;7.45;;;3.35;;
54835;SDS011;43486;43.574;1.476;2023-07-24T09:58:36;5.10;;;3.00;;
54835;SDS011;43486;43.574;1.476;2023-07-24T10:01:03;7.13;;;2.67;;
54835;SDS011;43486;43.574;1.476;2023-07-24T10:03:38;8.32;;;3.38;;
54835;SDS011;43486;43.574;1.476;2023-07-24T10:06:05;6.15;;;2.72;;
54835;SDS011;43486;43.574;1.476;2023-07-24T10:08:35;9.27;;;3.70;;
54835;SDS011;43486;43.574;1.476;2023-07-24T10:11:01;9.18;;;3.17;;
54835;SDS011;43486;43.574;1.476;2023-07-24T10:13:27;6.38;;;3.15;;
54835;SDS011;43486;43.574;1.476;2023-07-24T10:15:52;4.18;;;2.30;;
54835;SDS011;43486;43.574;1.476;2023-07-24T10:18:25;5.63;;;2.42;;
54835;SDS011;43486;43.574;1.476;2023-07-24T10:20:59;7.57;;;3.00;;
54835;SDS011;43486;43.574;1.476;2023-07-24T10:23:29;6.13;;;2.55;;
54835;SDS011;43486;43.574;1.476;2023-07-24T10:25:55;7.78;;;2.75;;
54835;SDS011;43486;43.574;1.476;2023-07-24T10:28:29;4.97;;;2.55;;
54835;SDS011;43486;43.574;1.476;2023-07-24T10:31:00;5.80;;;2.88;;
54835;SDS011;43486;43.574;1.476;2023-07-24T10:33:29;5.47;;;2.72;;
54835;SDS011;43486;43.574;1.476;2023-07-24T10:36:04;4.80;;;2.22;;
54835;SDS011;43486;43.574;1.476;2023-07-24T10:38:35;6.45;;;2.65;;
54835;SDS011;43486;43.574;1.476;2023-07-24T10:41:06;5.55;;;3.00;;
54835;SDS011;43486;43.574;1.476;2023-07-24T10:46:11;13.77;;;3.28;;
54835;SDS011;43486;43.574;1.476;2023-07-24T10:48:37;6.45;;;3.22;;
54835;SDS011;43486;43.574;1.476;2023-07-24T10:51:09;6.55;;;2.53;;
54835;SDS011;43486;43.574;1.476;2023-07-24T10:53:35;11.27;;;3.53;;
54835;SDS011;43486;43.574;1.476;2023-07-24T10:56:02;5.90;;;2.50;;
54835;SDS011;43486;43.574;1.476;2023-07-24T10:58:28;6.88;;;2.85;;
54835;SDS011;43486;43.574;1.476;2023-07-24T11:00:55;8.02;;;3.17;;
54835;SDS011;43486;43.574;1.476;2023-07-24T11:03:20;5.60;;;2.72;;
54835;SDS011;43486;43.574;1.476;2023-07-24T11:05:46;5.30;;;2.70;;
54835;SDS011;43486;43.574;1.476;2023-07-24T11:08:12;11.65;;;3.53;;
54835;SDS011;43486;43.574;1.476;2023-07-24T11:10:44;10.07;;;2.42;;
54835;SDS011;43486;43.574;1.476;2023-07-24T11:13:10;6.15;;;2.72;;
54835;SDS011;43486;43.574;1.476;2023-07-24T11:15:36;6.53;;;2.63;;
54835;SDS011;43486;43.574;1.476;2023-07-24T11:18:02;7.65;;;2.60;;
54835;SDS011;43486;43.574;1.476;2023-07-24T11:20:27;5.47;;;2.38;;
54835;SDS011;43486;43.574;1.476;2023-07-24T11:22:52;4.55;;;2.42;;
54835;SDS011;43486;43.574;1.476;2023-07-24T11:25:18;5.03;;;2.58;;
54835;SDS011;43486;43.574;1.476;2023-07-24T11:27:43;7.55;;;3.35;;
54835;SDS011;43486;43.574;1.476;2023-07-24T11:30:12;5.00;;;2.72;;
54835;SDS011;43486;43.574;1.476;2023-07-24T11:32:38;6.53;;;3.17;;
54835;SDS011;43486;43.574;1.476;2023-07-24T11:35:05;4.78;;;2.80;;
54835;SDS011;43486;43.574;1.476;2023-07-24T11:37:31;4.35;;;2.35;;
54835;SDS011;43486;43.574;1.476;2023-07-24T11:39:58;10.05;;;3.22;;
54835;SDS011;43486;43.574;1.476;2023-07-24T11:42:25;9.43;;;2.95;;
54835;SDS011;43486;43.574;1.476;2023-07-24T11:44:51;5.95;;;1.90;;
54835;SDS011;43486;43.574;1.476;2023-07-24T11:47:16;6.25;;;3.22;;
54835;SDS011;43486;43.574;1.476;2023-07-24T11:49:42;5.03;;;2.97;;
54835;SDS011;43486;43.574;1.476;2023-07-24T11:52:13;6.93;;;2.83;;
54835;SDS011;43486;43.574;1.476;2023-07-24T11:54:38;4.18;;;2.15;;
54835;SDS011;43486;43.574;1.476;2023-07-24T11:57:13;4.90;;;2.55;;
54835;SDS011;43486;43.574;1.476;2023-07-24T11:59:40;5.15;;;2.33;;
54835;SDS011;43486;43.574;1.476;2023-07-24T12:02:08;5.50;;;2.50;;
54835;SDS011;43486;43.574;1.476;2023-07-24T12:04:35;8.90;;;2.67;;
54835;SDS011;43486;43.574;1.476;2023-07-24T12:07:00;4.75;;;2.38;;
54835;SDS011;43486;43.574;1.476;2023-07-24T12:09:29;6.00;;;2.30;;
54835;SDS011;43486;43.574;1.476;2023-07-24T12:11:57;5.70;;;2.40;;
54835;SDS011;43486;43.574;1.476;2023-07-24T12:14:23;8.38;;;2.20;;
54835;SDS011;43486;43.574;1.476;2023-07-24T12:16:48;4.93;;;2.47;;
54835;SDS011;43486;43.574;1.476;2023-07-24T12:19:14;3.45;;;1.80;;
54835;SDS011;43486;43.574;1.476;2023-07-24T12:21:39;3.22;;;1.75;;
54835;SDS011;43486;43.574;1.476;2023-07-24T12:24:04;4.90;;;2.38;;
54835;SDS011;43486;43.574;1.476;2023-07-24T12:26:30;4.78;;;2.72;;
54835;SDS011;43486;43.574;1.476;2023-07-24T12:28:55;4.60;;;2.22;;
54835;SDS011;43486;43.574;1.476;2023-07-24T12:31:21;8.02;;;3.38;;
54835;SDS011;43486;43.574;1.476;2023-07-24T12:33:46;3.88;;;2.25;;
54835;SDS011;43486;43.574;1.476;2023-07-24T12:36:12;6.65;;;2.72;;
54835;SDS011;43486;43.574;1.476;2023-07-24T12:38:37;5.57;;;3.05;;
54835;SDS011;43486;43.574;1.476;2023-07-24T12:41:02;4.90;;;2.63;;
54835;SDS011;43486;43.574;1.476;2023-07-24T12:43:28;4.43;;;2.28;;
54835;SDS011;43486;43.574;1.476;2023-07-24T12:45:53;4.28;;;2.20;;
54835;SDS011;43486;43.574;1.476;2023-07-24T12:48:19;3.67;;;1.92;;
54835;SDS011;43486;43.574;1.476;2023-07-24T12:50:44;4.85;;;2.20;;
54835;SDS011;43486;43.574;1.476;2023-07-24T12:53:09;4.65;;;2.42;;
54835;SDS011;43486;43.574;1.476;2023-07-24T12:55:35;4.07;;;2.40;;
54835;SDS011;43486;43.574;1.476;2023-07-24T12:58:00;5.80;;;2.20;;
54835;SDS011;43486;43.574;1.476;2023-07-24T13:00:28;4.63;;;2.30;;
54835;SDS011;43486;43.574;1.476;2023-07-24T13:02:54;5.15;;;2.67;;
54835;SDS011;43486;43.574;1.476;2023-07-24T13:05:20;5.30;;;3.03;;
54835;SDS011;43486;43.574;1.476;2023-07-24T13:07:45;6.45;;;3.30;;
54835;SDS011;43486;43.574;1.476;2023-07-24T13:10:11;7.05;;;2.45;;
54835;SDS011;43486;43.574;1.476;2023-07-24T13:12:36;4.45;;;2.20;;
54835;SDS011;43486;43.574;1.476;2023-07-24T13:15:02;3.53;;;1.92;;
54835;SDS011;43486;43.574;1.476;2023-07-24T13:17:27;4.90;;;2.20;;
54835;SDS011;43486;43.574;1.476;2023-07-24T13:19:54;3.90;;;1.92;;
54835;SDS011;43486;43.574;1.476;2023-07-24T13:22:19;10.60;;;3.47;;
54835;SDS011;43486;43.574;1.476;2023-07-24T13:24:45;5.75;;;2.33;;
54835;SDS011;43486;43.574;1.476;2023-07-24T13:27:10;5.97;;;2.85;;
54835;SDS011;43486;43.574;1.476;2023-07-24T13:29:35;5.28;;;2.83;;
54835;SDS011;43486;43.574;1.476;2023-07-24T13:32:01;6.88;;;2.45;;
54835;SDS011;43486;43.574;1.476;2023-07-24T13:34:26;5.18;;;2.90;;
54835;SDS011;43486;43.574;1.476;2023-07-24T13:36:52;4.82;;;2.28;;
54835;SDS011;43486;43.574;1.476;2023-07-24T13:39:17;5.35;;;2.50;;
54835;SDS011;43486;43.574;1.476;2023-07-24T13:41:42;8.30;;;2.80;;
54835;SDS011;43486;43.574;1.476;2023-07-24T13:44:08;8.73;;;2.90;;
54835;SDS011;43486;43.574;1.476;2023-07-24T13:46:34;5.50;;;2.92;;
54835;SDS011;43486;43.574;1.476;2023-07-24T13:49:00;5.25;;;1.98;;
54835;SDS011;43486;43.574;1.476;2023-07-24T13:51:25;4.43;;;2.47;;
54835;SDS011;43486;43.574;1.476;2023-07-24T13:53:50;5.30;;;2.33;;
54835;SDS011;43486;43.574;1.476;2023-07-24T13:56:17;4.93;;;2.53;;
54835;SDS011;43486;43.574;1.476;2023-07-24T13:58:43;4.75;;;2.67;;
54835;SDS011;43486;43.574;1.476;2023-07-24T14:01:09;3.90;;;2.10;;
54835;SDS011;43486;43.574;1.476;2023-07-24T14:03:35;4.22;;;2.08;;
54835;SDS011;43486;43.574;1.476;2023-07-24T14:06:00;4.20;;;2.00;;
54835;SDS011;43486;43.574;1.476;2023-07-24T14:08:26;4.15;;;1.92;;
54835;SDS011;43486;43.574;1.476;2023-07-24T14:10:51;6.57;;;2.50;;
54835;SDS011;43486;43.574;1.476;2023-07-24T14:13:17;4.82;;;2.40;;
54835;SDS011;43486;43.574;1.476;2023-07-24T14:15:42;4.90;;;2.30;;
54835;SDS011;43486;43.574;1.476;2023-07-24T14:18:08;4.93;;;2.38;;
54835;SDS011;43486;43.574;1.476;2023-07-24T14:20:33;5.55;;;2.33;;
54835;SDS011;43486;43.574;1.476;2023-07-24T14:22:58;3.25;;;1.77;;
54835;SDS011;43486;43.574;1.476;2023-07-24T14:25:24;5.57;;;2.40;;
54835;SDS011;43486;43.574;1.476;2023-07-24T14:27:49;3.88;;;2.33;;
54835;SDS011;43486;43.574;1.476;2023-07-24T14:30:15;3.92;;;1.80;;
54835;SDS011;43486;43.574;1.476;2023-07-24T14:32:40;4.50;;;2.00;;
54835;SDS011;43486;43.574;1.476;2023-07-24T14:35:06;3.95;;;1.85;;
54835;SDS011;43486;43.574;1.476;2023-07-24T14:37:31;4.25;;;2.42;;
54835;SDS011;43486;43.574;1.476;2023-07-24T14:39:57;5.57;;;2.38;;
54835;SDS011;43486;43.574;1.476;2023-07-24T14:42:22;9.75;;;2.45;;
54835;SDS011;43486;43.574;1.476;2023-07-24T14:44:48;7.38;;;2.45;;
54835;SDS011;43486;43.574;1.476;2023-07-24T14:47:13;5.55;;;2.58;;